sensor_id;sensor_type;location;lat;lon;timestamp;P1;durP1;ratioP1;P2;durP2;ratioP2
58681;SDS011;44460;40.162;18.294;2023-05-07T00:01:54;18.75;;;11.18;;
58681;SDS011;44460;40.162;18.294;2023-05-07T00:04:19;17.27;;;11.52;;
58681;SDS011;44460;40.162;18.294;2023-05-07T00:06:45;19.60;;;11.45;;
58681;SDS011;44460;40.162;18.294;2023-05-07T00:09:12;15.82;;;11.05;;
58681;SDS011;44460;40.162;18.294;2023-05-07T00:11:39;20.73;;;12.30;;
58681;SDS011;44460;40.162;18.294;2023-05-07T00:14:08;18.88;;;12.27;;
58681;SDS011;44460;40.162;18.294;2023-05-07T00:16:36;18.33;;;10.95;;
58681;SDS011;44460;40.162;18.294;2023-05-07T00:19:01;19.65;;;11.43;;
58681;SDS011;44460;40.162;18.294;2023-05-07T00:21:27;18.25;;;11.43;;
58681;SDS011;44460;40.162;18.294;2023-05-07T00:23:53;18.27;;;11.88;;
58681;SDS011;44460;40.162;18.294;2023-05-07T00:26:19;18.92;;;11.60;;
58681;SDS011;44460;40.162;18.294;2023-05-07T00:28:49;20.23;;;11.93;;
58681;SDS011;44460;40.162;18.294;2023-05-07T00:31:14;17.10;;;11.55;;
58681;SDS011;44460;40.162;18.294;2023-05-07T00:33:40;17.55;;;11.73;;
58681;SDS011;44460;40.162;18.294;2023-05-07T00:36:06;19.00;;;11.50;;
58681;SDS011;44460;40.162;18.294;2023-05-07T00:38:31;18.33;;;12.55;;
58681;SDS011;44460;40.162;18.294;2023-05-07T00:40:58;15.38;;;10.98;;
58681;SDS011;44460;40.162;18.294;2023-05-07T00:43:24;18.08;;;11.13;;
58681;SDS011;44460;40.162;18.294;2023-05-07T00:45:50;19.27;;;11.40;;
58681;SDS011;44460;40.162;18.294;2023-05-07T00:48:15;18.38;;;10.95;;
58681;SDS011;44460;40.162;18.294;2023-05-07T00:50:42;20.92;;;10.98;;
58681;SDS011;44460;40.162;18.294;2023-05-07T00:53:07;21.42;;;12.23;;
58681;SDS011;44460;40.162;18.294;2023-05-07T00:55:33;20.08;;;11.38;;
58681;SDS011;44460;40.162;18.294;2023-05-07T00:57:59;16.45;;;10.48;;
58681;SDS011;44460;40.162;18.294;2023-05-07T01:00:24;20.88;;;11.40;;
58681;SDS011;44460;40.162;18.294;2023-05-07T01:02:50;15.90;;;10.80;;
58681;SDS011;44460;40.162;18.294;2023-05-07T01:05:17;19.90;;;10.20;;
58681;SDS011;44460;40.162;18.294;2023-05-07T01:07:43;22.25;;;11.38;;
58681;SDS011;44460;40.162;18.294;2023-05-07T01:10:09;17.85;;;11.07;;
58681;SDS011;44460;40.162;18.294;2023-05-07T01:12:36;22.25;;;12.20;;
58681;SDS011;44460;40.162;18.294;2023-05-07T01:15:02;25.60;;;12.70;;
58681;SDS011;44460;40.162;18.294;2023-05-07T01:17:28;27.13;;;12.68;;
58681;SDS011;44460;40.162;18.294;2023-05-07T01:19:55;23.10;;;12.98;;
58681;SDS011;44460;40.162;18.294;2023-05-07T01:22:54;24.88;;;12.93;;
58681;SDS011;44460;40.162;18.294;2023-05-07T01:25:13;23.08;;;14.07;;
58681;SDS011;44460;40.162;18.294;2023-05-07T01:27:45;27.08;;;13.75;;
58681;SDS011;44460;40.162;18.294;2023-05-07T01:30:11;23.85;;;13.57;;
58681;SDS011;44460;40.162;18.294;2023-05-07T01:32:43;26.50;;;14.82;;
58681;SDS011;44460;40.162;18.294;2023-05-07T01:35:12;20.67;;;12.23;;
58681;SDS011;44460;40.162;18.294;2023-05-07T01:37:39;20.23;;;12.55;;
58681;SDS011;44460;40.162;18.294;2023-05-07T01:40:05;20.20;;;12.05;;
58681;SDS011;44460;40.162;18.294;2023-05-07T01:42:32;21.00;;;11.93;;
58681;SDS011;44460;40.162;18.294;2023-05-07T01:44:59;21.50;;;12.27;;
58681;SDS011;44460;40.162;18.294;2023-05-07T01:47:25;23.17;;;13.20;;
58681;SDS011;44460;40.162;18.294;2023-05-07T01:49:54;20.55;;;11.77;;
58681;SDS011;44460;40.162;18.294;2023-05-07T01:52:20;20.42;;;12.13;;
58681;SDS011;44460;40.162;18.294;2023-05-07T01:54:46;20.20;;;11.00;;
58681;SDS011;44460;40.162;18.294;2023-05-07T01:57:12;20.58;;;11.85;;
58681;SDS011;44460;40.162;18.294;2023-05-07T01:59:38;24.55;;;12.13;;
58681;SDS011;44460;40.162;18.294;2023-05-07T02:02:04;18.75;;;11.50;;
58681;SDS011;44460;40.162;18.294;2023-05-07T02:04:31;16.77;;;11.17;;
58681;SDS011;44460;40.162;18.294;2023-05-07T02:06:57;18.73;;;10.95;;
58681;SDS011;44460;40.162;18.294;2023-05-07T02:09:22;17.45;;;11.60;;
58681;SDS011;44460;40.162;18.294;2023-05-07T02:11:49;17.10;;;11.35;;
58681;SDS011;44460;40.162;18.294;2023-05-07T02:14:17;18.05;;;10.90;;
58681;SDS011;44460;40.162;18.294;2023-05-07T02:16:43;18.40;;;10.43;;
58681;SDS011;44460;40.162;18.294;2023-05-07T02:19:11;16.17;;;9.82;;
58681;SDS011;44460;40.162;18.294;2023-05-07T02:21:40;16.10;;;10.48;;
58681;SDS011;44460;40.162;18.294;2023-05-07T02:24:07;17.13;;;11.10;;
58681;SDS011;44460;40.162;18.294;2023-05-07T02:26:33;16.90;;;10.13;;
58681;SDS011;44460;40.162;18.294;2023-05-07T02:28:59;17.55;;;10.90;;
58681;SDS011;44460;40.162;18.294;2023-05-07T02:31:25;17.33;;;11.05;;
58681;SDS011;44460;40.162;18.294;2023-05-07T02:33:53;17.55;;;9.95;;
58681;SDS011;44460;40.162;18.294;2023-05-07T02:36:43;17.75;;;10.52;;
58681;SDS011;44460;40.162;18.294;2023-05-07T02:39:12;17.17;;;10.48;;
58681;SDS011;44460;40.162;18.294;2023-05-07T02:41:39;17.02;;;10.02;;
58681;SDS011;44460;40.162;18.294;2023-05-07T02:44:06;17.60;;;10.15;;
58681;SDS011;44460;40.162;18.294;2023-05-07T02:46:32;17.92;;;10.70;;
58681;SDS011;44460;40.162;18.294;2023-05-07T02:49:03;16.05;;;10.27;;
58681;SDS011;44460;40.162;18.294;2023-05-07T02:51:29;16.67;;;10.30;;
58681;SDS011;44460;40.162;18.294;2023-05-07T02:53:57;20.60;;;11.15;;
58681;SDS011;44460;40.162;18.294;2023-05-07T02:56:25;15.55;;;10.57;;
58681;SDS011;44460;40.162;18.294;2023-05-07T02:58:50;20.40;;;9.95;;
58681;SDS011;44460;40.162;18.294;2023-05-07T03:01:17;16.43;;;10.57;;
58681;SDS011;44460;40.162;18.294;2023-05-07T03:04:04;17.48;;;10.35;;
58681;SDS011;44460;40.162;18.294;2023-05-07T03:06:29;16.80;;;10.27;;
58681;SDS011;44460;40.162;18.294;2023-05-07T03:08:55;15.45;;;10.45;;
58681;SDS011;44460;40.162;18.294;2023-05-07T03:11:20;16.58;;;10.15;;
58681;SDS011;44460;40.162;18.294;2023-05-07T03:13:46;14.57;;;9.98;;
58681;SDS011;44460;40.162;18.294;2023-05-07T03:16:12;17.45;;;10.13;;
58681;SDS011;44460;40.162;18.294;2023-05-07T03:18:37;17.13;;;10.60;;
58681;SDS011;44460;40.162;18.294;2023-05-07T03:21:03;14.98;;;10.50;;
58681;SDS011;44460;40.162;18.294;2023-05-07T03:23:28;17.50;;;10.05;;
58681;SDS011;44460;40.162;18.294;2023-05-07T03:25:54;16.35;;;10.55;;
58681;SDS011;44460;40.162;18.294;2023-05-07T03:28:20;19.45;;;10.27;;
58681;SDS011;44460;40.162;18.294;2023-05-07T03:30:50;18.60;;;10.68;;
58681;SDS011;44460;40.162;18.294;2023-05-07T03:33:16;15.63;;;10.57;;
58681;SDS011;44460;40.162;18.294;2023-05-07T03:35:41;14.82;;;10.10;;
58681;SDS011;44460;40.162;18.294;2023-05-07T03:38:07;19.15;;;10.25;;
58681;SDS011;44460;40.162;18.294;2023-05-07T03:40:35;14.88;;;9.93;;
58681;SDS011;44460;40.162;18.294;2023-05-07T03:43:03;16.17;;;10.35;;
58681;SDS011;44460;40.162;18.294;2023-05-07T03:45:30;19.38;;;9.95;;
58681;SDS011;44460;40.162;18.294;2023-05-07T03:48:10;14.50;;;8.95;;
58681;SDS011;44460;40.162;18.294;2023-05-07T03:50:35;15.10;;;9.38;;
58681;SDS011;44460;40.162;18.294;2023-05-07T03:53:01;13.35;;;8.98;;
58681;SDS011;44460;40.162;18.294;2023-05-07T03:55:36;15.00;;;8.93;;
58681;SDS011;44460;40.162;18.294;2023-05-07T03:58:01;18.90;;;10.57;;
58681;SDS011;44460;40.162;18.294;2023-05-07T04:00:27;15.88;;;9.40;;
58681;SDS011;44460;40.162;18.294;2023-05-07T04:02:56;15.18;;;9.40;;
58681;SDS011;44460;40.162;18.294;2023-05-07T04:05:25;13.93;;;9.00;;
58681;SDS011;44460;40.162;18.294;2023-05-07T04:07:55;15.95;;;8.70;;
58681;SDS011;44460;40.162;18.294;2023-05-07T04:10:26;13.13;;;8.75;;
58681;SDS011;44460;40.162;18.294;2023-05-07T04:12:55;12.77;;;8.52;;
58681;SDS011;44460;40.162;18.294;2023-05-07T04:15:23;15.13;;;9.30;;
58681;SDS011;44460;40.162;18.294;2023-05-07T04:17:48;17.35;;;9.30;;
58681;SDS011;44460;40.162;18.294;2023-05-07T04:20:17;13.45;;;8.75;;
58681;SDS011;44460;40.162;18.294;2023-05-07T04:22:46;14.50;;;8.13;;
58681;SDS011;44460;40.162;18.294;2023-05-07T04:25:12;11.98;;;8.27;;
58681;SDS011;44460;40.162;18.294;2023-05-07T04:27:38;11.02;;;7.78;;
58681;SDS011;44460;40.162;18.294;2023-05-07T04:30:04;11.52;;;7.55;;
58681;SDS011;44460;40.162;18.294;2023-05-07T04:32:34;11.60;;;7.50;;
58681;SDS011;44460;40.162;18.294;2023-05-07T04:35:01;11.68;;;7.63;;
58681;SDS011;44460;40.162;18.294;2023-05-07T04:37:27;13.27;;;8.10;;
58681;SDS011;44460;40.162;18.294;2023-05-07T04:39:53;11.88;;;8.00;;
58681;SDS011;44460;40.162;18.294;2023-05-07T04:42:19;13.07;;;8.15;;
58681;SDS011;44460;40.162;18.294;2023-05-07T04:44:45;13.70;;;8.02;;
58681;SDS011;44460;40.162;18.294;2023-05-07T04:47:11;14.18;;;7.93;;
58681;SDS011;44460;40.162;18.294;2023-05-07T04:49:37;13.85;;;7.63;;
58681;SDS011;44460;40.162;18.294;2023-05-07T04:52:03;16.58;;;9.15;;
58681;SDS011;44460;40.162;18.294;2023-05-07T04:54:28;17.02;;;9.55;;
58681;SDS011;44460;40.162;18.294;2023-05-07T04:56:55;14.93;;;8.75;;
58681;SDS011;44460;40.162;18.294;2023-05-07T04:59:21;14.65;;;8.18;;
58681;SDS011;44460;40.162;18.294;2023-05-07T05:01:48;13.43;;;8.20;;
58681;SDS011;44460;40.162;18.294;2023-05-07T05:04:14;17.13;;;8.30;;
58681;SDS011;44460;40.162;18.294;2023-05-07T05:06:40;16.25;;;9.55;;
58681;SDS011;44460;40.162;18.294;2023-05-07T05:09:06;17.23;;;8.90;;
58681;SDS011;44460;40.162;18.294;2023-05-07T05:11:33;22.05;;;9.43;;
58681;SDS011;44460;40.162;18.294;2023-05-07T05:13:59;17.20;;;9.32;;
58681;SDS011;44460;40.162;18.294;2023-05-07T05:16:24;20.50;;;9.43;;
58681;SDS011;44460;40.162;18.294;2023-05-07T05:18:50;16.70;;;8.63;;
58681;SDS011;44460;40.162;18.294;2023-05-07T05:21:18;17.65;;;8.55;;
58681;SDS011;44460;40.162;18.294;2023-05-07T05:23:46;12.15;;;7.50;;
58681;SDS011;44460;40.162;18.294;2023-05-07T05:26:14;12.70;;;7.63;;
58681;SDS011;44460;40.162;18.294;2023-05-07T05:28:40;13.10;;;7.30;;
58681;SDS011;44460;40.162;18.294;2023-05-07T05:31:05;16.42;;;8.05;;
58681;SDS011;44460;40.162;18.294;2023-05-07T05:33:34;13.25;;;7.57;;
58681;SDS011;44460;40.162;18.294;2023-05-07T05:36:03;10.82;;;7.20;;
58681;SDS011;44460;40.162;18.294;2023-05-07T05:38:29;13.35;;;7.65;;
58681;SDS011;44460;40.162;18.294;2023-05-07T05:40:55;10.95;;;6.70;;
58681;SDS011;44460;40.162;18.294;2023-05-07T05:43:20;11.48;;;7.05;;
58681;SDS011;44460;40.162;18.294;2023-05-07T05:45:46;10.18;;;6.00;;
58681;SDS011;44460;40.162;18.294;2023-05-07T05:48:12;9.68;;;5.85;;
58681;SDS011;44460;40.162;18.294;2023-05-07T05:50:38;11.10;;;5.60;;
58681;SDS011;44460;40.162;18.294;2023-05-07T05:53:04;8.43;;;5.60;;
58681;SDS011;44460;40.162;18.294;2023-05-07T05:55:30;9.85;;;5.40;;
58681;SDS011;44460;40.162;18.294;2023-05-07T05:57:58;9.13;;;5.80;;
58681;SDS011;44460;40.162;18.294;2023-05-07T06:00:25;11.15;;;4.90;;
58681;SDS011;44460;40.162;18.294;2023-05-07T06:02:58;7.70;;;4.78;;
58681;SDS011;44460;40.162;18.294;2023-05-07T06:05:25;12.13;;;5.20;;
58681;SDS011;44460;40.162;18.294;2023-05-07T06:07:53;9.80;;;4.72;;
58681;SDS011;44460;40.162;18.294;2023-05-07T06:10:18;9.02;;;4.72;;
58681;SDS011;44460;40.162;18.294;2023-05-07T06:12:44;10.60;;;5.03;;
58681;SDS011;44460;40.162;18.294;2023-05-07T06:15:10;9.77;;;5.32;;
58681;SDS011;44460;40.162;18.294;2023-05-07T06:17:36;9.32;;;5.00;;
58681;SDS011;44460;40.162;18.294;2023-05-07T06:20:02;10.40;;;5.40;;
58681;SDS011;44460;40.162;18.294;2023-05-07T06:22:28;11.00;;;5.78;;
58681;SDS011;44460;40.162;18.294;2023-05-07T06:24:54;12.00;;;6.85;;
58681;SDS011;44460;40.162;18.294;2023-05-07T06:27:19;13.15;;;8.15;;
58681;SDS011;44460;40.162;18.294;2023-05-07T06:29:47;13.68;;;8.65;;
58681;SDS011;44460;40.162;18.294;2023-05-07T06:32:14;14.77;;;8.30;;
58681;SDS011;44460;40.162;18.294;2023-05-07T06:34:42;12.00;;;7.57;;
58681;SDS011;44460;40.162;18.294;2023-05-07T06:37:08;11.77;;;6.70;;
58681;SDS011;44460;40.162;18.294;2023-05-07T06:39:55;13.55;;;7.32;;
58681;SDS011;44460;40.162;18.294;2023-05-07T06:42:21;15.60;;;7.90;;
58681;SDS011;44460;40.162;18.294;2023-05-07T06:47:16;9.32;;;5.35;;
58681;SDS011;44460;40.162;18.294;2023-05-07T06:49:43;8.82;;;4.60;;
58681;SDS011;44460;40.162;18.294;2023-05-07T06:52:12;6.47;;;3.83;;
58681;SDS011;44460;40.162;18.294;2023-05-07T06:54:38;8.57;;;5.07;;
58681;SDS011;44460;40.162;18.294;2023-05-07T06:57:04;8.35;;;4.57;;
58681;SDS011;44460;40.162;18.294;2023-05-07T06:59:30;5.90;;;3.33;;
58681;SDS011;44460;40.162;18.294;2023-05-07T07:01:56;6.72;;;3.47;;
58681;SDS011;44460;40.162;18.294;2023-05-07T07:04:21;6.18;;;2.90;;
58681;SDS011;44460;40.162;18.294;2023-05-07T07:06:58;6.55;;;3.50;;
58681;SDS011;44460;40.162;18.294;2023-05-07T07:09:23;8.05;;;3.30;;
58681;SDS011;44460;40.162;18.294;2023-05-07T07:11:50;7.80;;;3.08;;
58681;SDS011;44460;40.162;18.294;2023-05-07T07:14:18;8.63;;;3.30;;
58681;SDS011;44460;40.162;18.294;2023-05-07T07:16:48;7.50;;;3.05;;
58681;SDS011;44460;40.162;18.294;2023-05-07T07:19:16;6.25;;;3.13;;
58681;SDS011;44460;40.162;18.294;2023-05-07T07:21:42;7.22;;;3.33;;
58681;SDS011;44460;40.162;18.294;2023-05-07T07:24:09;7.47;;;3.30;;
58681;SDS011;44460;40.162;18.294;2023-05-07T07:26:35;7.03;;;2.70;;
58681;SDS011;44460;40.162;18.294;2023-05-07T07:29:00;5.43;;;2.80;;
58681;SDS011;44460;40.162;18.294;2023-05-07T07:31:26;5.00;;;2.70;;
58681;SDS011;44460;40.162;18.294;2023-05-07T07:33:51;5.70;;;2.95;;
58681;SDS011;44460;40.162;18.294;2023-05-07T07:36:18;6.72;;;3.03;;
58681;SDS011;44460;40.162;18.294;2023-05-07T07:38:44;5.72;;;2.75;;
58681;SDS011;44460;40.162;18.294;2023-05-07T07:41:09;6.28;;;2.90;;
58681;SDS011;44460;40.162;18.294;2023-05-07T07:43:36;7.67;;;3.63;;
58681;SDS011;44460;40.162;18.294;2023-05-07T07:46:01;5.65;;;3.10;;
58681;SDS011;44460;40.162;18.294;2023-05-07T07:48:28;8.00;;;3.53;;
58681;SDS011;44460;40.162;18.294;2023-05-07T07:50:55;6.60;;;3.78;;
58681;SDS011;44460;40.162;18.294;2023-05-07T07:53:21;7.57;;;4.13;;
58681;SDS011;44460;40.162;18.294;2023-05-07T07:55:47;5.90;;;3.55;;
58681;SDS011;44460;40.162;18.294;2023-05-07T07:58:15;6.30;;;3.70;;
58681;SDS011;44460;40.162;18.294;2023-05-07T08:00:41;7.90;;;3.47;;
58681;SDS011;44460;40.162;18.294;2023-05-07T08:03:09;7.75;;;3.85;;
58681;SDS011;44460;40.162;18.294;2023-05-07T08:05:38;7.20;;;3.55;;
58681;SDS011;44460;40.162;18.294;2023-05-07T08:08:04;6.03;;;3.05;;
58681;SDS011;44460;40.162;18.294;2023-05-07T08:10:34;9.95;;;3.70;;
58681;SDS011;44460;40.162;18.294;2023-05-07T08:13:09;5.95;;;3.17;;
58681;SDS011;44460;40.162;18.294;2023-05-07T08:15:37;7.57;;;3.80;;
58681;SDS011;44460;40.162;18.294;2023-05-07T08:18:03;5.90;;;3.13;;
58681;SDS011;44460;40.162;18.294;2023-05-07T08:20:29;6.72;;;3.50;;
58681;SDS011;44460;40.162;18.294;2023-05-07T08:22:56;6.93;;;3.67;;
58681;SDS011;44460;40.162;18.294;2023-05-07T08:25:21;6.18;;;3.60;;
58681;SDS011;44460;40.162;18.294;2023-05-07T08:27:47;6.15;;;3.50;;
58681;SDS011;44460;40.162;18.294;2023-05-07T08:30:13;11.10;;;3.40;;
58681;SDS011;44460;40.162;18.294;2023-05-07T08:32:39;7.78;;;3.50;;
58681;SDS011;44460;40.162;18.294;2023-05-07T08:35:04;8.23;;;3.47;;
58681;SDS011;44460;40.162;18.294;2023-05-07T08:37:30;8.68;;;3.78;;
58681;SDS011;44460;40.162;18.294;2023-05-07T08:39:56;7.85;;;3.78;;
58681;SDS011;44460;40.162;18.294;2023-05-07T08:42:25;7.22;;;3.72;;
58681;SDS011;44460;40.162;18.294;2023-05-07T08:44:52;10.32;;;3.95;;
58681;SDS011;44460;40.162;18.294;2023-05-07T08:47:20;6.70;;;3.67;;
58681;SDS011;44460;40.162;18.294;2023-05-07T08:49:49;7.25;;;4.00;;
58681;SDS011;44460;40.162;18.294;2023-05-07T08:52:16;7.47;;;3.65;;
58681;SDS011;44460;40.162;18.294;2023-05-07T08:54:42;8.90;;;4.60;;
58681;SDS011;44460;40.162;18.294;2023-05-07T08:59:34;8.35;;;4.13;;
58681;SDS011;44460;40.162;18.294;2023-05-07T09:02:02;9.45;;;4.07;;
58681;SDS011;44460;40.162;18.294;2023-05-07T09:04:28;7.32;;;4.10;;
58681;SDS011;44460;40.162;18.294;2023-05-07T09:06:53;7.82;;;4.13;;
58681;SDS011;44460;40.162;18.294;2023-05-07T09:09:21;7.45;;;3.58;;
58681;SDS011;44460;40.162;18.294;2023-05-07T09:11:47;8.43;;;4.00;;
58681;SDS011;44460;40.162;18.294;2023-05-07T09:14:15;6.75;;;3.83;;
58681;SDS011;44460;40.162;18.294;2023-05-07T09:16:43;8.15;;;3.70;;
58681;SDS011;44460;40.162;18.294;2023-05-07T09:19:08;6.70;;;3.97;;
58681;SDS011;44460;40.162;18.294;2023-05-07T09:21:35;8.85;;;4.60;;
58681;SDS011;44460;40.162;18.294;2023-05-07T09:24:04;7.07;;;3.92;;
58681;SDS011;44460;40.162;18.294;2023-05-07T09:26:37;6.78;;;3.55;;
58681;SDS011;44460;40.162;18.294;2023-05-07T09:31:36;7.32;;;4.13;;
58681;SDS011;44460;40.162;18.294;2023-05-07T09:34:23;9.35;;;4.10;;
58681;SDS011;44460;40.162;18.294;2023-05-07T09:36:49;8.30;;;4.15;;
58681;SDS011;44460;40.162;18.294;2023-05-07T09:39:15;8.63;;;3.80;;
58681;SDS011;44460;40.162;18.294;2023-05-07T09:41:45;9.05;;;4.30;;
58681;SDS011;44460;40.162;18.294;2023-05-07T09:44:33;9.00;;;4.50;;
58681;SDS011;44460;40.162;18.294;2023-05-07T09:46:59;6.70;;;3.97;;
58681;SDS011;44460;40.162;18.294;2023-05-07T09:49:35;8.80;;;4.45;;
58681;SDS011;44460;40.162;18.294;2023-05-07T09:52:05;8.88;;;4.05;;
58681;SDS011;44460;40.162;18.294;2023-05-07T09:54:35;6.85;;;3.97;;
58681;SDS011;44460;40.162;18.294;2023-05-07T09:57:04;7.57;;;4.60;;
58681;SDS011;44460;40.162;18.294;2023-05-07T09:59:33;9.87;;;4.70;;
58681;SDS011;44460;40.162;18.294;2023-05-07T10:02:04;7.88;;;3.92;;
58681;SDS011;44460;40.162;18.294;2023-05-07T10:04:32;7.30;;;4.20;;
58681;SDS011;44460;40.162;18.294;2023-05-07T10:06:59;6.22;;;4.15;;
58681;SDS011;44460;40.162;18.294;2023-05-07T10:09:26;9.17;;;4.20;;
58681;SDS011;44460;40.162;18.294;2023-05-07T10:11:52;8.13;;;4.10;;
58681;SDS011;44460;40.162;18.294;2023-05-07T10:14:20;8.05;;;4.32;;
58681;SDS011;44460;40.162;18.294;2023-05-07T10:16:46;7.80;;;4.28;;
58681;SDS011;44460;40.162;18.294;2023-05-07T10:19:15;8.85;;;4.65;;
58681;SDS011;44460;40.162;18.294;2023-05-07T10:21:47;7.53;;;4.43;;
58681;SDS011;44460;40.162;18.294;2023-05-07T10:24:19;8.65;;;3.95;;
58681;SDS011;44460;40.162;18.294;2023-05-07T10:26:45;7.68;;;4.20;;
58681;SDS011;44460;40.162;18.294;2023-05-07T10:29:18;9.70;;;4.22;;
58681;SDS011;44460;40.162;18.294;2023-05-07T10:34:19;7.38;;;4.07;;
58681;SDS011;44460;40.162;18.294;2023-05-07T10:36:47;9.55;;;4.40;;
58681;SDS011;44460;40.162;18.294;2023-05-07T10:39:14;12.00;;;4.60;;
58681;SDS011;44460;40.162;18.294;2023-05-07T10:41:40;8.95;;;4.53;;
58681;SDS011;44460;40.162;18.294;2023-05-07T10:44:06;8.10;;;4.37;;
58681;SDS011;44460;40.162;18.294;2023-05-07T10:46:34;8.68;;;4.50;;
58681;SDS011;44460;40.162;18.294;2023-05-07T10:49:09;7.22;;;4.00;;
58681;SDS011;44460;40.162;18.294;2023-05-07T11:00:48;10.27;;;4.40;;
58681;SDS011;44460;40.162;18.294;2023-05-07T11:03:24;8.85;;;4.50;;
58681;SDS011;44460;40.162;18.294;2023-05-07T11:06:11;7.75;;;4.18;;
58681;SDS011;44460;40.162;18.294;2023-05-07T11:09:01;11.23;;;4.38;;
58681;SDS011;44460;40.162;18.294;2023-05-07T11:14:14;7.70;;;4.38;;
58681;SDS011;44460;40.162;18.294;2023-05-07T11:16:46;7.72;;;4.30;;
58681;SDS011;44460;40.162;18.294;2023-05-07T11:22:24;8.02;;;4.45;;
58681;SDS011;44460;40.162;18.294;2023-05-07T11:25:03;7.32;;;4.15;;
58681;SDS011;44460;40.162;18.294;2023-05-07T11:27:28;10.85;;;4.40;;
58681;SDS011;44460;40.162;18.294;2023-05-07T11:29:55;6.72;;;4.60;;
58681;SDS011;44460;40.162;18.294;2023-05-07T11:32:28;9.30;;;4.85;;
58681;SDS011;44460;40.162;18.294;2023-05-07T11:34:55;7.32;;;4.43;;
58681;SDS011;44460;40.162;18.294;2023-05-07T11:37:22;8.90;;;4.20;;
58681;SDS011;44460;40.162;18.294;2023-05-07T11:40:07;6.88;;;4.47;;
58681;SDS011;44460;40.162;18.294;2023-05-07T11:42:35;10.73;;;4.65;;
58681;SDS011;44460;40.162;18.294;2023-05-07T11:45:02;10.18;;;4.40;;
58681;SDS011;44460;40.162;18.294;2023-05-07T11:47:29;7.50;;;4.10;;
58681;SDS011;44460;40.162;18.294;2023-05-07T11:49:55;8.35;;;4.85;;
58681;SDS011;44460;40.162;18.294;2023-05-07T11:52:21;10.02;;;4.43;;
58681;SDS011;44460;40.162;18.294;2023-05-07T11:54:51;8.48;;;4.40;;
58681;SDS011;44460;40.162;18.294;2023-05-07T11:57:17;8.93;;;4.47;;
58681;SDS011;44460;40.162;18.294;2023-05-07T11:59:42;9.48;;;4.22;;
58681;SDS011;44460;40.162;18.294;2023-05-07T12:02:15;7.40;;;4.32;;
58681;SDS011;44460;40.162;18.294;2023-05-07T12:04:42;7.32;;;4.60;;
58681;SDS011;44460;40.162;18.294;2023-05-07T12:07:14;9.02;;;4.32;;
58681;SDS011;44460;40.162;18.294;2023-05-07T12:09:40;8.05;;;4.45;;
58681;SDS011;44460;40.162;18.294;2023-05-07T12:12:06;7.03;;;4.35;;
58681;SDS011;44460;40.162;18.294;2023-05-07T12:14:31;9.27;;;4.55;;
58681;SDS011;44460;40.162;18.294;2023-05-07T12:16:58;11.35;;;4.57;;
58681;SDS011;44460;40.162;18.294;2023-05-07T12:19:24;8.83;;;4.77;;
58681;SDS011;44460;40.162;18.294;2023-05-07T12:21:50;12.90;;;4.20;;
58681;SDS011;44460;40.162;18.294;2023-05-07T12:24:16;8.13;;;4.75;;
58681;SDS011;44460;40.162;18.294;2023-05-07T12:26:41;9.50;;;4.50;;
58681;SDS011;44460;40.162;18.294;2023-05-07T12:29:07;7.10;;;4.13;;
58681;SDS011;44460;40.162;18.294;2023-05-07T12:31:32;9.10;;;4.22;;
58681;SDS011;44460;40.162;18.294;2023-05-07T12:33:58;8.50;;;5.38;;
58681;SDS011;44460;40.162;18.294;2023-05-07T12:36:23;7.65;;;4.38;;
58681;SDS011;44460;40.162;18.294;2023-05-07T12:38:49;8.75;;;4.68;;
58681;SDS011;44460;40.162;18.294;2023-05-07T12:41:15;8.57;;;4.57;;
58681;SDS011;44460;40.162;18.294;2023-05-07T12:43:44;8.43;;;4.55;;
58681;SDS011;44460;40.162;18.294;2023-05-07T12:46:11;8.23;;;4.63;;
58681;SDS011;44460;40.162;18.294;2023-05-07T12:48:42;9.02;;;4.45;;
58681;SDS011;44460;40.162;18.294;2023-05-07T12:51:08;10.35;;;4.93;;
58681;SDS011;44460;40.162;18.294;2023-05-07T12:53:39;12.07;;;5.20;;
58681;SDS011;44460;40.162;18.294;2023-05-07T12:56:04;8.15;;;4.70;;
58681;SDS011;44460;40.162;18.294;2023-05-07T12:58:31;7.68;;;4.80;;
58681;SDS011;44460;40.162;18.294;2023-05-07T13:00:58;9.15;;;4.50;;
58681;SDS011;44460;40.162;18.294;2023-05-07T13:03:30;8.05;;;4.20;;
58681;SDS011;44460;40.162;18.294;2023-05-07T13:05:57;7.85;;;4.32;;
58681;SDS011;44460;40.162;18.294;2023-05-07T13:10:55;8.13;;;4.13;;
58681;SDS011;44460;40.162;18.294;2023-05-07T13:13:21;8.07;;;4.45;;
58681;SDS011;44460;40.162;18.294;2023-05-07T13:15:47;9.13;;;4.32;;
58681;SDS011;44460;40.162;18.294;2023-05-07T13:18:12;7.35;;;4.35;;
58681;SDS011;44460;40.162;18.294;2023-05-07T13:20:38;7.47;;;4.45;;
58681;SDS011;44460;40.162;18.294;2023-05-07T13:23:03;10.23;;;4.97;;
58681;SDS011;44460;40.162;18.294;2023-05-07T13:25:30;9.97;;;4.90;;
58681;SDS011;44460;40.162;18.294;2023-05-07T13:27:59;9.20;;;4.70;;
58681;SDS011;44460;40.162;18.294;2023-05-07T13:30:24;9.05;;;5.40;;
58681;SDS011;44460;40.162;18.294;2023-05-07T13:32:51;10.18;;;4.18;;
58681;SDS011;44460;40.162;18.294;2023-05-07T13:35:17;9.43;;;5.30;;
58681;SDS011;44460;40.162;18.294;2023-05-07T13:37:42;8.27;;;4.55;;
58681;SDS011;44460;40.162;18.294;2023-05-07T13:40:08;7.65;;;4.90;;
58681;SDS011;44460;40.162;18.294;2023-05-07T13:42:34;9.27;;;5.15;;
58681;SDS011;44460;40.162;18.294;2023-05-07T13:44:59;11.00;;;4.95;;
58681;SDS011;44460;40.162;18.294;2023-05-07T13:47:25;10.70;;;5.20;;
58681;SDS011;44460;40.162;18.294;2023-05-07T13:49:51;8.55;;;5.22;;
58681;SDS011;44460;40.162;18.294;2023-05-07T13:52:17;8.98;;;5.40;;
58681;SDS011;44460;40.162;18.294;2023-05-07T13:54:42;9.73;;;5.50;;
58681;SDS011;44460;40.162;18.294;2023-05-07T13:57:08;10.00;;;6.03;;
58681;SDS011;44460;40.162;18.294;2023-05-07T13:59:33;11.57;;;5.53;;
58681;SDS011;44460;40.162;18.294;2023-05-07T14:01:59;9.60;;;5.50;;
58681;SDS011;44460;40.162;18.294;2023-05-07T14:04:24;11.30;;;5.70;;
58681;SDS011;44460;40.162;18.294;2023-05-07T14:06:50;10.23;;;5.57;;
58681;SDS011;44460;40.162;18.294;2023-05-07T14:09:15;11.25;;;5.85;;
58681;SDS011;44460;40.162;18.294;2023-05-07T14:11:41;9.23;;;5.30;;
58681;SDS011;44460;40.162;18.294;2023-05-07T14:14:07;10.20;;;5.70;;
58681;SDS011;44460;40.162;18.294;2023-05-07T14:16:32;9.40;;;5.22;;
58681;SDS011;44460;40.162;18.294;2023-05-07T14:18:58;10.35;;;5.63;;
58681;SDS011;44460;40.162;18.294;2023-05-07T14:21:23;9.52;;;5.22;;
58681;SDS011;44460;40.162;18.294;2023-05-07T14:23:49;9.00;;;5.20;;
58681;SDS011;44460;40.162;18.294;2023-05-07T14:26:14;8.50;;;5.50;;
58681;SDS011;44460;40.162;18.294;2023-05-07T14:28:40;8.98;;;5.70;;
58681;SDS011;44460;40.162;18.294;2023-05-07T14:31:06;9.60;;;5.45;;
58681;SDS011;44460;40.162;18.294;2023-05-07T14:33:31;9.27;;;4.90;;
58681;SDS011;44460;40.162;18.294;2023-05-07T14:35:57;9.05;;;5.70;;
58681;SDS011;44460;40.162;18.294;2023-05-07T14:38:22;11.43;;;6.32;;
58681;SDS011;44460;40.162;18.294;2023-05-07T14:40:48;12.13;;;5.80;;
58681;SDS011;44460;40.162;18.294;2023-05-07T14:43:13;9.20;;;5.18;;
58681;SDS011;44460;40.162;18.294;2023-05-07T14:45:39;10.25;;;4.78;;
58681;SDS011;44460;40.162;18.294;2023-05-07T14:48:04;9.85;;;5.75;;
58681;SDS011;44460;40.162;18.294;2023-05-07T14:50:30;10.70;;;5.30;;
58681;SDS011;44460;40.162;18.294;2023-05-07T14:52:55;10.68;;;5.20;;